sensor_id;sensor_type;location;lat;lon;timestamp;P1;durP1;ratioP1;P2;durP2;ratioP2
75552;SDS011;64136;53.118;17.996;2023-01-19T00:01:25;20.40;;;9.10;;
75552;SDS011;64136;53.118;17.996;2023-01-19T00:03:51;22.30;;;9.60;;
75552;SDS011;64136;53.118;17.996;2023-01-19T00:06:18;21.40;;;9.30;;
75552;SDS011;64136;53.118;17.996;2023-01-19T00:08:44;28.10;;;11.30;;
75552;SDS011;64136;53.118;17.996;2023-01-19T00:11:11;25.80;;;10.90;;
75552;SDS011;64136;53.118;17.996;2023-01-19T00:13:38;26.80;;;11.50;;
75552;SDS011;64136;53.118;17.996;2023-01-19T00:16:05;28.20;;;11.10;;
75552;SDS011;64136;53.118;17.996;2023-01-19T00:18:32;29.90;;;11.60;;
75552;SDS011;64136;53.118;17.996;2023-01-19T00:20:58;20.10;;;9.20;;
75552;SDS011;64136;53.118;17.996;2023-01-19T00:23:25;25.00;;;11.80;;
75552;SDS011;64136;53.118;17.996;2023-01-19T00:25:51;27.10;;;11.60;;
75552;SDS011;64136;53.118;17.996;2023-01-19T00:28:18;23.10;;;10.70;;
75552;SDS011;64136;53.118;17.996;2023-01-19T00:30:44;30.00;;;12.30;;
75552;SDS011;64136;53.118;17.996;2023-01-19T00:33:11;27.70;;;10.60;;
75552;SDS011;64136;53.118;17.996;2023-01-19T00:35:39;22.00;;;9.80;;
75552;SDS011;64136;53.118;17.996;2023-01-19T00:38:08;23.20;;;10.40;;
75552;SDS011;64136;53.118;17.996;2023-01-19T00:40:35;19.40;;;9.40;;
75552;SDS011;64136;53.118;17.996;2023-01-19T00:43:01;25.30;;;10.60;;
75552;SDS011;64136;53.118;17.996;2023-01-19T00:45:29;24.50;;;9.70;;
75552;SDS011;64136;53.118;17.996;2023-01-19T00:47:56;28.80;;;12.60;;
75552;SDS011;64136;53.118;17.996;2023-01-19T00:50:24;25.60;;;11.30;;
75552;SDS011;64136;53.118;17.996;2023-01-19T00:52:52;26.20;;;10.90;;
75552;SDS011;64136;53.118;17.996;2023-01-19T00:56:08;28.80;;;12.20;;
75552;SDS011;64136;53.118;17.996;2023-01-19T00:58:34;23.60;;;10.40;;
75552;SDS011;64136;53.118;17.996;2023-01-19T01:01:01;23.20;;;11.30;;
75552;SDS011;64136;53.118;17.996;2023-01-19T01:03:29;18.40;;;9.90;;
75552;SDS011;64136;53.118;17.996;2023-01-19T01:05:55;25.60;;;11.60;;
75552;SDS011;64136;53.118;17.996;2023-01-19T01:08:22;24.40;;;10.70;;
75552;SDS011;64136;53.118;17.996;2023-01-19T01:10:48;16.60;;;7.70;;
75552;SDS011;64136;53.118;17.996;2023-01-19T01:13:15;23.60;;;10.60;;
75552;SDS011;64136;53.118;17.996;2023-01-19T01:15:43;27.20;;;10.40;;
75552;SDS011;64136;53.118;17.996;2023-01-19T01:18:09;26.90;;;11.00;;
75552;SDS011;64136;53.118;17.996;2023-01-19T01:20:36;18.90;;;8.30;;
75552;SDS011;64136;53.118;17.996;2023-01-19T01:23:02;28.50;;;11.40;;
75552;SDS011;64136;53.118;17.996;2023-01-19T01:25:29;25.30;;;10.50;;
75552;SDS011;64136;53.118;17.996;2023-01-19T01:27:56;21.50;;;9.30;;
75552;SDS011;64136;53.118;17.996;2023-01-19T01:30:22;21.60;;;9.70;;
75552;SDS011;64136;53.118;17.996;2023-01-19T01:32:49;16.60;;;7.70;;
75552;SDS011;64136;53.118;17.996;2023-01-19T01:35:15;18.40;;;8.90;;
75552;SDS011;64136;53.118;17.996;2023-01-19T01:37:42;28.50;;;11.50;;
75552;SDS011;64136;53.118;17.996;2023-01-19T01:40:10;25.10;;;9.90;;
75552;SDS011;64136;53.118;17.996;2023-01-19T01:42:38;30.30;;;11.50;;
75552;SDS011;64136;53.118;17.996;2023-01-19T01:47:56;23.60;;;10.70;;
75552;SDS011;64136;53.118;17.996;2023-01-19T01:50:25;21.80;;;10.90;;
75552;SDS011;64136;53.118;17.996;2023-01-19T01:52:55;28.30;;;11.20;;
75552;SDS011;64136;53.118;17.996;2023-01-19T01:55:36;26.90;;;11.50;;
75552;SDS011;64136;53.118;17.996;2023-01-19T01:58:07;18.60;;;7.40;;
75552;SDS011;64136;53.118;17.996;2023-01-19T02:00:37;31.30;;;12.30;;
75552;SDS011;64136;53.118;17.996;2023-01-19T02:03:08;23.20;;;10.60;;
75552;SDS011;64136;53.118;17.996;2023-01-19T02:05:34;15.20;;;7.60;;
75552;SDS011;64136;53.118;17.996;2023-01-19T02:08:03;18.70;;;8.50;;
75552;SDS011;64136;53.118;17.996;2023-01-19T02:10:38;22.80;;;10.90;;
75552;SDS011;64136;53.118;17.996;2023-01-19T02:13:09;30.30;;;12.90;;
75552;SDS011;64136;53.118;17.996;2023-01-19T02:15:43;26.70;;;12.00;;
75552;SDS011;64136;53.118;17.996;2023-01-19T02:18:10;28.60;;;13.20;;
75552;SDS011;64136;53.118;17.996;2023-01-19T02:20:36;27.60;;;11.90;;
75552;SDS011;64136;53.118;17.996;2023-01-19T02:23:06;28.30;;;13.10;;
75552;SDS011;64136;53.118;17.996;2023-01-19T02:25:40;28.50;;;12.90;;
75552;SDS011;64136;53.118;17.996;2023-01-19T02:28:07;27.70;;;12.20;;
75552;SDS011;64136;53.118;17.996;2023-01-19T02:30:33;21.00;;;10.30;;
75552;SDS011;64136;53.118;17.996;2023-01-19T02:34:02;33.80;;;14.40;;
75552;SDS011;64136;53.118;17.996;2023-01-19T02:36:37;33.30;;;14.30;;
75552;SDS011;64136;53.118;17.996;2023-01-19T02:39:07;29.50;;;13.60;;
75552;SDS011;64136;53.118;17.996;2023-01-19T02:41:37;28.50;;;12.90;;
75552;SDS011;64136;53.118;17.996;2023-01-19T02:44:07;27.20;;;13.00;;
75552;SDS011;64136;53.118;17.996;2023-01-19T02:46:36;30.20;;;13.60;;
75552;SDS011;64136;53.118;17.996;2023-01-19T02:49:03;27.50;;;11.70;;
75552;SDS011;64136;53.118;17.996;2023-01-19T02:51:30;26.70;;;12.70;;
75552;SDS011;64136;53.118;17.996;2023-01-19T02:54:01;23.80;;;11.00;;
75552;SDS011;64136;53.118;17.996;2023-01-19T02:56:43;24.50;;;10.70;;
75552;SDS011;64136;53.118;17.996;2023-01-19T03:06:15;30.80;;;15.30;;
75552;SDS011;64136;53.118;17.996;2023-01-19T03:08:07;28.50;;;14.10;;
75552;SDS011;64136;53.118;17.996;2023-01-19T03:13:37;39.20;;;18.00;;
75552;SDS011;64136;53.118;17.996;2023-01-19T03:16:33;31.70;;;15.30;;
75552;SDS011;64136;53.118;17.996;2023-01-19T03:19:09;19.90;;;10.00;;
75552;SDS011;64136;53.118;17.996;2023-01-19T03:21:44;21.20;;;9.90;;
75552;SDS011;64136;53.118;17.996;2023-01-19T03:24:13;16.20;;;6.70;;
75552;SDS011;64136;53.118;17.996;2023-01-19T03:26:43;21.80;;;8.40;;
75552;SDS011;64136;53.118;17.996;2023-01-19T03:29:14;28.50;;;12.60;;
75552;SDS011;64136;53.118;17.996;2023-01-19T03:31:44;26.70;;;12.00;;
75552;SDS011;64136;53.118;17.996;2023-01-19T03:34:14;18.80;;;8.30;;
75552;SDS011;64136;53.118;17.996;2023-01-19T03:36:43;28.90;;;11.90;;
75552;SDS011;64136;53.118;17.996;2023-01-19T03:39:15;21.60;;;8.70;;
75552;SDS011;64136;53.118;17.996;2023-01-19T03:41:47;32.30;;;13.90;;
75552;SDS011;64136;53.118;17.996;2023-01-19T03:44:16;15.60;;;7.60;;
75552;SDS011;64136;53.118;17.996;2023-01-19T03:46:44;19.10;;;7.60;;
75552;SDS011;64136;53.118;17.996;2023-01-19T03:49:12;18.80;;;7.50;;
75552;SDS011;64136;53.118;17.996;2023-01-19T03:51:39;22.70;;;11.00;;
75552;SDS011;64136;53.118;17.996;2023-01-19T03:54:06;15.20;;;8.00;;
75552;SDS011;64136;53.118;17.996;2023-01-19T03:56:35;7.40;;;3.00;;
75552;SDS011;64136;53.118;17.996;2023-01-19T03:59:02;29.30;;;12.20;;
75552;SDS011;64136;53.118;17.996;2023-01-19T04:01:30;30.00;;;15.10;;
75552;SDS011;64136;53.118;17.996;2023-01-19T04:03:56;28.40;;;14.10;;
75552;SDS011;64136;53.118;17.996;2023-01-19T04:06:23;27.10;;;13.80;;
75552;SDS011;64136;53.118;17.996;2023-01-19T04:08:49;28.10;;;13.20;;
75552;SDS011;64136;53.118;17.996;2023-01-19T04:11:16;31.10;;;13.50;;
75552;SDS011;64136;53.118;17.996;2023-01-19T04:13:43;30.70;;;13.90;;
75552;SDS011;64136;53.118;17.996;2023-01-19T04:16:10;15.30;;;6.80;;
75552;SDS011;64136;53.118;17.996;2023-01-19T04:18:37;15.20;;;6.00;;
75552;SDS011;64136;53.118;17.996;2023-01-19T04:21:04;15.20;;;6.90;;
75552;SDS011;64136;53.118;17.996;2023-01-19T04:23:32;22.30;;;7.50;;
75552;SDS011;64136;53.118;17.996;2023-01-19T04:26:03;13.80;;;6.00;;
75552;SDS011;64136;53.118;17.996;2023-01-19T04:28:31;21.30;;;11.40;;
75552;SDS011;64136;53.118;17.996;2023-01-19T04:31:03;30.90;;;13.80;;
75552;SDS011;64136;53.118;17.996;2023-01-19T04:33:30;27.70;;;12.50;;
75552;SDS011;64136;53.118;17.996;2023-01-19T04:35:57;26.20;;;11.10;;
75552;SDS011;64136;53.118;17.996;2023-01-19T04:38:24;32.80;;;13.20;;
75552;SDS011;64136;53.118;17.996;2023-01-19T04:40:51;33.90;;;14.70;;
75552;SDS011;64136;53.118;17.996;2023-01-19T04:43:19;16.60;;;7.40;;
75552;SDS011;64136;53.118;17.996;2023-01-19T04:45:46;27.20;;;11.20;;
75552;SDS011;64136;53.118;17.996;2023-01-19T04:48:14;33.70;;;15.80;;
75552;SDS011;64136;53.118;17.996;2023-01-19T04:50:40;22.50;;;8.80;;
75552;SDS011;64136;53.118;17.996;2023-01-19T04:53:07;7.30;;;3.00;;
75552;SDS011;64136;53.118;17.996;2023-01-19T04:55:33;37.20;;;15.10;;
75552;SDS011;64136;53.118;17.996;2023-01-19T04:58:00;39.00;;;17.30;;
75552;SDS011;64136;53.118;17.996;2023-01-19T05:00:26;19.80;;;8.50;;
75552;SDS011;64136;53.118;17.996;2023-01-19T05:02:53;32.00;;;14.20;;
75552;SDS011;64136;53.118;17.996;2023-01-19T05:05:19;29.50;;;13.60;;
75552;SDS011;64136;53.118;17.996;2023-01-19T05:07:45;25.10;;;11.00;;
75552;SDS011;64136;53.118;17.996;2023-01-19T05:10:12;17.30;;;7.70;;
75552;SDS011;64136;53.118;17.996;2023-01-19T05:12:38;37.60;;;15.50;;
75552;SDS011;64136;53.118;17.996;2023-01-19T05:15:05;21.00;;;7.90;;
75552;SDS011;64136;53.118;17.996;2023-01-19T05:17:32;15.90;;;6.70;;
75552;SDS011;64136;53.118;17.996;2023-01-19T05:19:59;38.10;;;17.60;;
75552;SDS011;64136;53.118;17.996;2023-01-19T05:22:25;20.10;;;9.10;;
75552;SDS011;64136;53.118;17.996;2023-01-19T05:24:52;23.10;;;8.20;;
75552;SDS011;64136;53.118;17.996;2023-01-19T05:27:19;15.30;;;6.60;;
75552;SDS011;64136;53.118;17.996;2023-01-19T05:29:50;16.10;;;6.60;;
75552;SDS011;64136;53.118;17.996;2023-01-19T05:32:17;18.40;;;7.90;;
75552;SDS011;64136;53.118;17.996;2023-01-19T05:34:43;34.30;;;12.60;;
75552;SDS011;64136;53.118;17.996;2023-01-19T05:37:09;12.40;;;5.90;;
75552;SDS011;64136;53.118;17.996;2023-01-19T05:39:36;27.60;;;10.10;;
75552;SDS011;64136;53.118;17.996;2023-01-19T05:42:12;23.80;;;10.20;;
75552;SDS011;64136;53.118;17.996;2023-01-19T05:44:39;16.70;;;6.90;;
75552;SDS011;64136;53.118;17.996;2023-01-19T05:47:05;12.20;;;4.30;;
75552;SDS011;64136;53.118;17.996;2023-01-19T05:49:31;16.10;;;7.80;;
75552;SDS011;64136;53.118;17.996;2023-01-19T05:51:58;13.70;;;5.90;;
75552;SDS011;64136;53.118;17.996;2023-01-19T05:54:24;22.30;;;10.50;;
75552;SDS011;64136;53.118;17.996;2023-01-19T05:56:51;13.20;;;5.90;;
75552;SDS011;64136;53.118;17.996;2023-01-19T05:59:17;13.40;;;4.70;;
75552;SDS011;64136;53.118;17.996;2023-01-19T06:01:49;26.50;;;11.50;;
75552;SDS011;64136;53.118;17.996;2023-01-19T06:04:17;12.90;;;5.30;;
75552;SDS011;64136;53.118;17.996;2023-01-19T06:06:48;21.10;;;7.90;;
75552;SDS011;64136;53.118;17.996;2023-01-19T06:09:15;14.60;;;6.20;;
75552;SDS011;64136;53.118;17.996;2023-01-19T06:11:43;15.00;;;7.10;;
75552;SDS011;64136;53.118;17.996;2023-01-19T06:14:10;14.80;;;6.50;;
75552;SDS011;64136;53.118;17.996;2023-01-19T06:16:37;13.60;;;6.10;;
75552;SDS011;64136;53.118;17.996;2023-01-19T06:19:04;28.30;;;12.20;;
75552;SDS011;64136;53.118;17.996;2023-01-19T06:21:31;26.40;;;11.80;;
75552;SDS011;64136;53.118;17.996;2023-01-19T06:23:57;23.50;;;11.00;;
75552;SDS011;64136;53.118;17.996;2023-01-19T06:26:24;25.40;;;12.20;;
75552;SDS011;64136;53.118;17.996;2023-01-19T06:28:51;23.80;;;12.20;;
75552;SDS011;64136;53.118;17.996;2023-01-19T06:31:17;30.30;;;12.70;;
75552;SDS011;64136;53.118;17.996;2023-01-19T06:33:54;24.00;;;12.30;;
75552;SDS011;64136;53.118;17.996;2023-01-19T06:36:20;27.50;;;11.60;;
75552;SDS011;64136;53.118;17.996;2023-01-19T06:38:47;24.00;;;12.00;;
75552;SDS011;64136;53.118;17.996;2023-01-19T06:41:13;23.10;;;10.70;;
75552;SDS011;64136;53.118;17.996;2023-01-19T06:43:39;21.30;;;9.10;;
75552;SDS011;64136;53.118;17.996;2023-01-19T06:46:05;23.80;;;10.50;;
75552;SDS011;64136;53.118;17.996;2023-01-19T06:48:32;18.20;;;9.10;;
75552;SDS011;64136;53.118;17.996;2023-01-19T06:50:59;22.80;;;10.70;;
75552;SDS011;64136;53.118;17.996;2023-01-19T06:53:25;20.00;;;7.90;;
75552;SDS011;64136;53.118;17.996;2023-01-19T06:55:56;22.70;;;10.90;;
75552;SDS011;64136;53.118;17.996;2023-01-19T06:58:27;28.50;;;13.20;;
75552;SDS011;64136;53.118;17.996;2023-01-19T07:00:54;26.60;;;13.00;;
75552;SDS011;64136;53.118;17.996;2023-01-19T07:03:31;29.20;;;13.60;;
75552;SDS011;64136;53.118;17.996;2023-01-19T07:05:58;27.40;;;13.60;;
75552;SDS011;64136;53.118;17.996;2023-01-19T07:08:28;30.10;;;13.10;;
75552;SDS011;64136;53.118;17.996;2023-01-19T07:13:26;37.80;;;16.90;;
75552;SDS011;64136;53.118;17.996;2023-01-19T07:15:53;34.20;;;15.40;;
75552;SDS011;64136;53.118;17.996;2023-01-19T07:18:19;31.00;;;14.50;;
75552;SDS011;64136;53.118;17.996;2023-01-19T07:20:46;33.80;;;14.80;;
75552;SDS011;64136;53.118;17.996;2023-01-19T07:23:14;30.80;;;14.90;;
75552;SDS011;64136;53.118;17.996;2023-01-19T07:25:44;35.60;;;16.80;;
75552;SDS011;64136;53.118;17.996;2023-01-19T07:28:11;31.60;;;16.70;;
75552;SDS011;64136;53.118;17.996;2023-01-19T07:30:43;30.20;;;14.70;;
75552;SDS011;64136;53.118;17.996;2023-01-19T07:33:11;35.80;;;17.30;;
75552;SDS011;64136;53.118;17.996;2023-01-19T07:35:44;35.20;;;16.30;;
75552;SDS011;64136;53.118;17.996;2023-01-19T07:38:21;36.60;;;14.50;;
75552;SDS011;64136;53.118;17.996;2023-01-19T07:40:48;27.00;;;12.70;;
75552;SDS011;64136;53.118;17.996;2023-01-19T07:43:14;30.90;;;12.80;;
75552;SDS011;64136;53.118;17.996;2023-01-19T07:45:41;29.10;;;13.90;;
75552;SDS011;64136;53.118;17.996;2023-01-19T07:48:10;33.60;;;14.50;;
75552;SDS011;64136;53.118;17.996;2023-01-19T07:50:36;34.10;;;15.60;;
75552;SDS011;64136;53.118;17.996;2023-01-19T07:54:55;38.30;;;19.20;;
75552;SDS011;64136;53.118;17.996;2023-01-19T07:57:37;33.60;;;15.50;;
75552;SDS011;64136;53.118;17.996;2023-01-19T08:00:03;29.40;;;12.40;;
75552;SDS011;64136;53.118;17.996;2023-01-19T08:02:41;29.50;;;13.20;;
75552;SDS011;64136;53.118;17.996;2023-01-19T08:05:08;27.00;;;11.70;;
75552;SDS011;64136;53.118;17.996;2023-01-19T08:07:37;23.50;;;10.60;;
75552;SDS011;64136;53.118;17.996;2023-01-19T08:10:05;26.60;;;11.70;;
75552;SDS011;64136;53.118;17.996;2023-01-19T08:12:32;34.00;;;13.60;;
75552;SDS011;64136;53.118;17.996;2023-01-19T08:14:59;31.80;;;14.30;;
75552;SDS011;64136;53.118;17.996;2023-01-19T08:17:26;38.60;;;15.40;;
75552;SDS011;64136;53.118;17.996;2023-01-19T08:19:52;34.80;;;17.20;;
75552;SDS011;64136;53.118;17.996;2023-01-19T08:22:18;34.80;;;15.80;;
75552;SDS011;64136;53.118;17.996;2023-01-19T08:24:45;39.70;;;15.40;;
75552;SDS011;64136;53.118;17.996;2023-01-19T08:27:11;33.60;;;15.50;;
75552;SDS011;64136;53.118;17.996;2023-01-19T08:29:38;37.50;;;16.10;;
75552;SDS011;64136;53.118;17.996;2023-01-19T08:32:07;54.60;;;20.70;;
75552;SDS011;64136;53.118;17.996;2023-01-19T08:34:34;37.70;;;15.90;;
75552;SDS011;64136;53.118;17.996;2023-01-19T08:37:03;35.70;;;17.80;;
75552;SDS011;64136;53.118;17.996;2023-01-19T08:39:29;37.90;;;17.00;;
75552;SDS011;64136;53.118;17.996;2023-01-19T08:42:13;38.50;;;17.40;;
75552;SDS011;64136;53.118;17.996;2023-01-19T08:44:40;37.40;;;16.80;;
75552;SDS011;64136;53.118;17.996;2023-01-19T08:47:10;55.60;;;22.20;;
75552;SDS011;64136;53.118;17.996;2023-01-19T08:49:53;98.80;;;34.80;;
75552;SDS011;64136;53.118;17.996;2023-01-19T08:52:20;46.20;;;19.80;;
75552;SDS011;64136;53.118;17.996;2023-01-19T08:54:46;53.10;;;22.20;;
75552;SDS011;64136;53.118;17.996;2023-01-19T08:57:13;47.40;;;23.20;;
75552;SDS011;64136;53.118;17.996;2023-01-19T09:00:15;35.40;;;17.90;;
75552;SDS011;64136;53.118;17.996;2023-01-19T09:02:53;48.30;;;24.00;;
75552;SDS011;64136;53.118;17.996;2023-01-19T09:05:33;42.50;;;18.90;;
75552;SDS011;64136;53.118;17.996;2023-01-19T09:08:14;29.90;;;12.70;;
75552;SDS011;64136;53.118;17.996;2023-01-19T09:13:36;53.70;;;22.30;;
75552;SDS011;64136;53.118;17.996;2023-01-19T09:16:06;41.10;;;17.50;;
75552;SDS011;64136;53.118;17.996;2023-01-19T09:18:33;37.10;;;15.90;;
75552;SDS011;64136;53.118;17.996;2023-01-19T09:21:05;52.40;;;21.70;;
75552;SDS011;64136;53.118;17.996;2023-01-19T09:23:34;37.70;;;19.60;;
75552;SDS011;64136;53.118;17.996;2023-01-19T09:26:02;35.80;;;16.60;;
75552;SDS011;64136;53.118;17.996;2023-01-19T09:28:41;29.80;;;15.40;;
75552;SDS011;64136;53.118;17.996;2023-01-19T09:31:08;39.60;;;19.90;;
75552;SDS011;64136;53.118;17.996;2023-01-19T09:33:35;33.60;;;15.10;;
75552;SDS011;64136;53.118;17.996;2023-01-19T09:36:02;25.40;;;12.60;;
75552;SDS011;64136;53.118;17.996;2023-01-19T09:39:06;12.30;;;5.20;;
75552;SDS011;64136;53.118;17.996;2023-01-19T09:44:42;39.40;;;17.00;;
75552;SDS011;64136;53.118;17.996;2023-01-19T09:47:24;40.60;;;18.00;;
75552;SDS011;64136;53.118;17.996;2023-01-19T09:50:20;34.30;;;14.70;;
75552;SDS011;64136;53.118;17.996;2023-01-19T09:53:13;46.40;;;19.20;;
75552;SDS011;64136;53.118;17.996;2023-01-19T09:55:49;54.90;;;24.70;;
75552;SDS011;64136;53.118;17.996;2023-01-19T09:58:23;33.40;;;17.80;;
75552;SDS011;64136;53.118;17.996;2023-01-19T10:00:55;44.70;;;21.60;;
75552;SDS011;64136;53.118;17.996;2023-01-19T10:03:49;13.20;;;7.70;;
75552;SDS011;64136;53.118;17.996;2023-01-19T10:06:26;40.60;;;17.70;;
75552;SDS011;64136;53.118;17.996;2023-01-19T10:08:55;35.10;;;15.50;;
75552;SDS011;64136;53.118;17.996;2023-01-19T10:14:18;36.30;;;16.40;;
75552;SDS011;64136;53.118;17.996;2023-01-19T10:17:34;38.00;;;15.60;;
75552;SDS011;64136;53.118;17.996;2023-01-19T10:23:14;33.00;;;15.30;;
75552;SDS011;64136;53.118;17.996;2023-01-19T10:26:02;39.90;;;19.20;;
75552;SDS011;64136;53.118;17.996;2023-01-19T10:29:29;49.10;;;20.30;;
75552;SDS011;64136;53.118;17.996;2023-01-19T10:32:09;44.20;;;19.20;;
75552;SDS011;64136;53.118;17.996;2023-01-19T10:42:28;51.80;;;24.30;;
75552;SDS011;64136;53.118;17.996;2023-01-19T10:45:20;57.70;;;27.10;;
75552;SDS011;64136;53.118;17.996;2023-01-19T10:48:03;36.80;;;16.90;;
75552;SDS011;64136;53.118;17.996;2023-01-19T10:50:41;44.20;;;19.20;;
75552;SDS011;64136;53.118;17.996;2023-01-19T10:53:19;40.50;;;19.80;;
75552;SDS011;64136;53.118;17.996;2023-01-19T10:56:08;23.50;;;11.90;;
75552;SDS011;64136;53.118;17.996;2023-01-19T10:58:42;32.40;;;17.00;;
75552;SDS011;64136;53.118;17.996;2023-01-19T11:01:13;39.90;;;19.80;;
75552;SDS011;64136;53.118;17.996;2023-01-19T11:03:43;37.30;;;19.50;;
75552;SDS011;64136;53.118;17.996;2023-01-19T11:06:42;40.00;;;20.50;;
75552;SDS011;64136;53.118;17.996;2023-01-19T11:09:10;38.60;;;18.50;;
75552;SDS011;64136;53.118;17.996;2023-01-19T11:11:49;29.80;;;15.40;;
75552;SDS011;64136;53.118;17.996;2023-01-19T11:21:53;50.60;;;20.30;;
75552;SDS011;64136;53.118;17.996;2023-01-19T11:24:49;26.70;;;13.90;;
75552;SDS011;64136;53.118;17.996;2023-01-19T11:27:17;22.10;;;10.80;;
75552;SDS011;64136;53.118;17.996;2023-01-19T11:29:49;28.90;;;14.00;;
75552;SDS011;64136;53.118;17.996;2023-01-19T11:32:45;23.10;;;11.60;;
75552;SDS011;64136;53.118;17.996;2023-01-19T11:37:46;25.50;;;12.50;;
75552;SDS011;64136;53.118;17.996;2023-01-19T11:40:33;29.70;;;13.60;;
75552;SDS011;64136;53.118;17.996;2023-01-19T11:43:00;24.60;;;12.40;;
75552;SDS011;64136;53.118;17.996;2023-01-19T11:45:27;28.20;;;14.30;;
75552;SDS011;64136;53.118;17.996;2023-01-19T11:47:58;22.00;;;11.00;;
75552;SDS011;64136;53.118;17.996;2023-01-19T11:50:32;21.50;;;10.70;;
75552;SDS011;64136;53.118;17.996;2023-01-19T11:58:39;25.60;;;12.10;;
75552;SDS011;64136;53.118;17.996;2023-01-19T12:03:54;24.90;;;11.20;;
75552;SDS011;64136;53.118;17.996;2023-01-19T12:06:32;34.80;;;15.90;;
75552;SDS011;64136;53.118;17.996;2023-01-19T12:09:03;34.80;;;16.20;;
75552;SDS011;64136;53.118;17.996;2023-01-19T12:11:56;33.70;;;16.90;;
75552;SDS011;64136;53.118;17.996;2023-01-19T12:14:40;34.70;;;16.80;;
75552;SDS011;64136;53.118;17.996;2023-01-19T12:17:23;29.50;;;13.90;;
75552;SDS011;64136;53.118;17.996;2023-01-19T12:19:54;37.00;;;13.70;;
75552;SDS011;64136;53.118;17.996;2023-01-19T12:22:29;26.50;;;11.80;;
75552;SDS011;64136;53.118;17.996;2023-01-19T12:25:12;30.00;;;13.60;;
75552;SDS011;64136;53.118;17.996;2023-01-19T12:27:47;31.90;;;13.70;;
75552;SDS011;64136;53.118;17.996;2023-01-19T12:30:22;37.10;;;17.90;;
75552;SDS011;64136;53.118;17.996;2023-01-19T12:36:01;34.50;;;17.60;;
75552;SDS011;64136;53.118;17.996;2023-01-19T12:38:38;18.60;;;9.20;;
75552;SDS011;64136;53.118;17.996;2023-01-19T12:41:17;40.00;;;20.10;;
75552;SDS011;64136;53.118;17.996;2023-01-19T12:46:55;45.40;;;19.30;;
75552;SDS011;64136;53.118;17.996;2023-01-19T12:49:33;48.30;;;20.10;;
75552;SDS011;64136;53.118;17.996;2023-01-19T12:55:15;40.20;;;17.10;;
75552;SDS011;64136;53.118;17.996;2023-01-19T13:00:27;45.40;;;18.80;;
75552;SDS011;64136;53.118;17.996;2023-01-19T13:02:57;37.10;;;15.80;;
75552;SDS011;64136;53.118;17.996;2023-01-19T13:08:16;46.50;;;19.90;;
75552;SDS011;64136;53.118;17.996;2023-01-19T13:14:32;45.10;;;20.10;;
75552;SDS011;64136;53.118;17.996;2023-01-19T13:19:21;46.40;;;20.00;;
75552;SDS011;64136;53.118;17.996;2023-01-19T13:21:57;52.90;;;22.30;;
75552;SDS011;64136;53.118;17.996;2023-01-19T13:24:24;51.90;;;22.50;;
75552;SDS011;64136;53.118;17.996;2023-01-19T13:27:22;44.50;;;20.40;;
75552;SDS011;64136;53.118;17.996;2023-01-19T13:29:53;41.20;;;18.30;;
75552;SDS011;64136;53.118;17.996;2023-01-19T13:32:19;43.70;;;15.80;;
75552;SDS011;64136;53.118;17.996;2023-01-19T13:34:55;33.00;;;14.30;;
75552;SDS011;64136;53.118;17.996;2023-01-19T13:37:29;78.20;;;29.40;;
75552;SDS011;64136;53.118;17.996;2023-01-19T13:40:02;51.70;;;22.40;;
75552;SDS011;64136;53.118;17.996;2023-01-19T13:42:31;50.80;;;22.10;;
75552;SDS011;64136;53.118;17.996;2023-01-19T13:45:02;54.30;;;23.90;;
75552;SDS011;64136;53.118;17.996;2023-01-19T13:47:43;35.10;;;15.70;;
75552;SDS011;64136;53.118;17.996;2023-01-19T13:52:53;21.20;;;9.50;;
75552;SDS011;64136;53.118;17.996;2023-01-19T13:55:25;42.00;;;19.90;;
75552;SDS011;64136;53.118;17.996;2023-01-19T13:57:53;45.70;;;22.40;;
75552;SDS011;64136;53.118;17.996;2023-01-19T14:00:28;20.30;;;10.60;;
75552;SDS011;64136;53.118;17.996;2023-01-19T14:03:14;26.50;;;13.20;;
75552;SDS011;64136;53.118;17.996;2023-01-19T14:05:43;31.50;;;14.90;;
75552;SDS011;64136;53.118;17.996;2023-01-19T14:08:13;29.60;;;13.40;;
75552;SDS011;64136;53.118;17.996;2023-01-19T14:13:30;32.90;;;15.20;;
75552;SDS011;64136;53.118;17.996;2023-01-19T14:16:05;30.60;;;15.40;;
75552;SDS011;64136;53.118;17.996;2023-01-19T14:18:34;8.90;;;4.20;;
75552;SDS011;64136;53.118;17.996;2023-01-19T14:23:45;36.70;;;17.50;;
75552;SDS011;64136;53.118;17.996;2023-01-19T14:31:51;43.00;;;20.20;;
75552;SDS011;64136;53.118;17.996;2023-01-19T14:34:34;28.40;;;13.50;;
75552;SDS011;64136;53.118;17.996;2023-01-19T14:37:17;34.30;;;18.50;;
75552;SDS011;64136;53.118;17.996;2023-01-19T14:39:52;37.50;;;17.20;;
75552;SDS011;64136;53.118;17.996;2023-01-19T14:42:31;26.30;;;11.10;;
75552;SDS011;64136;53.118;17.996;2023-01-19T14:45:01;23.50;;;9.50;;
75552;SDS011;64136;53.118;17.996;2023-01-19T14:47:36;33.30;;;15.10;;
75552;SDS011;64136;53.118;17.996;2023-01-19T14:52:55;35.00;;;16.70;;
75552;SDS011;64136;53.118;17.996;2023-01-19T14:55:28;33.30;;;14.80;;
75552;SDS011;64136;53.118;17.996;2023-01-19T14:58:00;34.60;;;17.60;;
75552;SDS011;64136;53.118;17.996;2023-01-19T15:00:26;27.80;;;13.40;;
75552;SDS011;64136;53.118;17.996;2023-01-19T15:02:53;25.70;;;13.30;;
75552;SDS011;64136;53.118;17.996;2023-01-19T15:05:20;31.00;;;15.30;;
75552;SDS011;64136;53.118;17.996;2023-01-19T15:07:47;33.70;;;15.90;;
75552;SDS011;64136;53.118;17.996;2023-01-19T15:10:16;31.60;;;16.80;;
75552;SDS011;64136;53.118;17.996;2023-01-19T15:12:46;34.50;;;14.40;;
75552;SDS011;64136;53.118;17.996;2023-01-19T15:15:18;35.00;;;15.90;;
75552;SDS011;64136;53.118;17.996;2023-01-19T15:17:55;26.30;;;11.90;;
75552;SDS011;64136;53.118;17.996;2023-01-19T15:20:23;33.40;;;15.00;;
75552;SDS011;64136;53.118;17.996;2023-01-19T15:22:49;34.80;;;15.70;;
75552;SDS011;64136;53.118;17.996;2023-01-19T15:25:17;30.50;;;15.60;;
75552;SDS011;64136;53.118;17.996;2023-01-19T15:27:46;31.00;;;15.00;;
75552;SDS011;64136;53.118;17.996;2023-01-19T15:30:18;26.40;;;14.10;;
75552;SDS011;64136;53.118;17.996;2023-01-19T15:32:46;29.30;;;14.40;;
75552;SDS011;64136;53.118;17.996;2023-01-19T15:35:16;28.10;;;13.40;;
75552;SDS011;64136;53.118;17.996;2023-01-19T15:37:45;22.30;;;11.70;;
75552;SDS011;64136;53.118;17.996;2023-01-19T15:40:12;24.50;;;12.10;;
75552;SDS011;64136;53.118;17.996;2023-01-19T15:42:40;23.90;;;12.20;;
75552;SDS011;64136;53.118;17.996;2023-01-19T15:47:40;22.10;;;9.70;;
75552;SDS011;64136;53.118;17.996;2023-01-19T15:50:06;27.30;;;12.70;;
75552;SDS011;64136;53.118;17.996;2023-01-19T15:52:33;31.40;;;13.60;;
75552;SDS011;64136;53.118;17.996;2023-01-19T15:55:00;32.50;;;15.90;;
75552;SDS011;64136;53.118;17.996;2023-01-19T15:57:26;33.20;;;15.50;;
75552;SDS011;64136;53.118;17.996;2023-01-19T15:59:52;31.20;;;15.70;;
75552;SDS011;64136;53.118;17.996;2023-01-19T16:02:19;32.70;;;16.80;;
75552;SDS011;64136;53.118;17.996;2023-01-19T16:04:48;38.20;;;18.00;;
75552;SDS011;64136;53.118;17.996;2023-01-19T16:07:15;46.30;;;19.70;;
75552;SDS011;64136;53.118;17.996;2023-01-19T16:09:41;39.90;;;18.40;;